sensor_id;sensor_type;location;lat;lon;timestamp;pressure;altitude;pressure_sealevel;temperature;humidity
9717;BME280;4897;43.570;27.832;2023-08-30T00:01:07;98053.81;;;23.78;100.00
9717;BME280;4897;43.570;27.832;2023-08-30T00:03:34;98042.06;;;23.66;100.00
9717;BME280;4897;43.570;27.832;2023-08-30T00:06:04;98085.34;;;23.86;100.00
9717;BME280;4897;43.570;27.832;2023-08-30T00:08:31;98070.53;;;23.81;100.00
9717;BME280;4897;43.570;27.832;2023-08-30T00:10:59;98049.53;;;23.70;100.00
9717;BME280;4897;43.570;27.832;2023-08-30T00:13:29;98065.91;;;23.82;100.00
9717;BME280;4897;43.570;27.832;2023-08-30T00:15:56;98077.28;;;23.91;100.00
9717;BME280;4897;43.570;27.832;2023-08-30T00:18:23;98074.88;;;23.94;100.00
9717;BME280;4897;43.570;27.832;2023-08-30T00:20:50;98066.94;;;23.93;100.00
9717;BME280;4897;43.570;27.832;2023-08-30T00:23:17;98070.59;;;23.98;100.00
9717;BME280;4897;43.570;27.832;2023-08-30T00:25:43;98065.97;;;23.99;100.00
9717;BME280;4897;43.570;27.832;2023-08-30T00:28:12;98065.13;;;23.98;100.00
9717;BME280;4897;43.570;27.832;2023-08-30T00:30:39;98050.69;;;23.86;100.00
9717;BME280;4897;43.570;27.832;2023-08-30T00:33:05;98077.00;;;24.04;100.00
9717;BME280;4897;43.570;27.832;2023-08-30T00:35:35;98051.38;;;23.93;100.00
9717;BME280;4897;43.570;27.832;2023-08-30T00:38:02;98079.28;;;24.07;100.00
9717;BME280;4897;43.570;27.832;2023-08-30T00:40:37;98072.97;;;24.06;100.00
9717;BME280;4897;43.570;27.832;2023-08-30T00:43:05;98065.72;;;24.00;100.00
9717;BME280;4897;43.570;27.832;2023-08-30T00:45:34;98074.50;;;24.02;100.00
9717;BME280;4897;43.570;27.832;2023-08-30T00:48:01;98071.78;;;24.02;100.00
9717;BME280;4897;43.570;27.832;2023-08-30T00:50:29;98070.09;;;24.01;100.00
9717;BME280;4897;43.570;27.832;2023-08-30T00:52:59;98073.31;;;23.98;100.00
9717;BME280;4897;43.570;27.832;2023-08-30T00:55:30;98075.22;;;23.98;100.00
9717;BME280;4897;43.570;27.832;2023-08-30T00:57:58;98073.06;;;24.00;100.00
9717;BME280;4897;43.570;27.832;2023-08-30T01:00:25;97957.28;;;23.21;100.00
9717;BME280;4897;43.570;27.832;2023-08-30T01:02:54;98072.16;;;23.94;100.00
9717;BME280;4897;43.570;27.832;2023-08-30T01:05:21;98071.44;;;23.99;100.00
9717;BME280;4897;43.570;27.832;2023-08-30T01:07:50;98061.63;;;23.86;100.00
9717;BME280;4897;43.570;27.832;2023-08-30T01:10:17;98070.25;;;23.95;100.00
9717;BME280;4897;43.570;27.832;2023-08-30T01:12:48;98074.38;;;23.97;100.00
9717;BME280;4897;43.570;27.832;2023-08-30T01:15:19;98080.94;;;23.96;100.00
9717;BME280;4897;43.570;27.832;2023-08-30T01:17:47;98074.88;;;23.94;100.00
9717;BME280;4897;43.570;27.832;2023-08-30T01:20:17;98078.81;;;23.87;100.00
9717;BME280;4897;43.570;27.832;2023-08-30T01:22:53;98068.97;;;23.74;100.00
9717;BME280;4897;43.570;27.832;2023-08-30T01:25:30;98065.31;;;23.80;100.00
9717;BME280;4897;43.570;27.832;2023-08-30T01:28:01;98077.28;;;23.91;100.00
9717;BME280;4897;43.570;27.832;2023-08-30T01:30:32;98078.19;;;23.96;100.00
9717;BME280;4897;43.570;27.832;2023-08-30T01:33:00;98083.16;;;23.99;100.00
9717;BME280;4897;43.570;27.832;2023-08-30T01:35:29;98064.44;;;23.91;100.00
9717;BME280;4897;43.570;27.832;2023-08-30T01:37:58;98086.16;;;24.09;100.00
9717;BME280;4897;43.570;27.832;2023-08-30T01:40:28;98085.78;;;24.06;100.00
9717;BME280;4897;43.570;27.832;2023-08-30T01:42:57;98094.69;;;24.01;100.00
9717;BME280;4897;43.570;27.832;2023-08-30T01:45:27;98090.31;;;24.00;100.00
9717;BME280;4897;43.570;27.832;2023-08-30T01:47:56;98091.28;;;23.94;100.00
9717;BME280;4897;43.570;27.832;2023-08-30T01:50:24;98088.19;;;23.91;100.00
9717;BME280;4897;43.570;27.832;2023-08-30T01:52:52;98081.09;;;23.78;100.00
9717;BME280;4897;43.570;27.832;2023-08-30T01:55:20;98083.59;;;23.79;100.00
9717;BME280;4897;43.570;27.832;2023-08-30T01:57:48;98047.41;;;23.61;100.00
9717;BME280;4897;43.570;27.832;2023-08-30T02:00:15;98055.09;;;23.64;100.00
9717;BME280;4897;43.570;27.832;2023-08-30T02:02:44;98073.97;;;23.77;100.00
9717;BME280;4897;43.570;27.832;2023-08-30T02:05:10;98059.50;;;23.65;100.00
9717;BME280;4897;43.570;27.832;2023-08-30T02:07:43;98061.16;;;23.66;100.00
9717;BME280;4897;43.570;27.832;2023-08-30T02:10:20;98067.94;;;23.63;100.00
9717;BME280;4897;43.570;27.832;2023-08-30T02:12:49;98041.28;;;23.42;100.00
9717;BME280;4897;43.570;27.832;2023-08-30T02:15:19;98075.97;;;23.70;100.00
9717;BME280;4897;43.570;27.832;2023-08-30T02:17:48;98075.31;;;23.63;100.00
9717;BME280;4897;43.570;27.832;2023-08-30T02:20:16;98075.75;;;23.60;100.00
9717;BME280;4897;43.570;27.832;2023-08-30T02:22:43;98061.44;;;23.53;100.00
9717;BME280;4897;43.570;27.832;2023-08-30T02:25:10;98075.31;;;23.63;100.00
9717;BME280;4897;43.570;27.832;2023-08-30T02:27:36;98044.59;;;23.33;100.00
9717;BME280;4897;43.570;27.832;2023-08-30T02:30:04;98071.03;;;23.44;100.00
9717;BME280;4897;43.570;27.832;2023-08-30T02:32:31;98076.75;;;23.42;100.00
9717;BME280;4897;43.570;27.832;2023-08-30T02:35:02;98044.66;;;23.26;100.00
9717;BME280;4897;43.570;27.832;2023-08-30T02:37:29;98054.78;;;23.37;100.00
9717;BME280;4897;43.570;27.832;2023-08-30T02:39:56;98022.28;;;23.13;100.00
9717;BME280;4897;43.570;27.832;2023-08-30T02:42:25;98029.75;;;23.17;100.00
9717;BME280;4897;43.570;27.832;2023-08-30T02:44:55;98064.16;;;23.41;100.00
9717;BME280;4897;43.570;27.832;2023-08-30T02:47:22;98003.53;;;23.16;100.00
9717;BME280;4897;43.570;27.832;2023-08-30T02:49:49;98056.56;;;23.43;100.00
9717;BME280;4897;43.570;27.832;2023-08-30T02:52:17;98048.50;;;23.37;100.00
9717;BME280;4897;43.570;27.832;2023-08-30T02:54:44;98021.09;;;23.09;100.00
9717;BME280;4897;43.570;27.832;2023-08-30T02:57:11;98062.97;;;23.49;100.00
9717;BME280;4897;43.570;27.832;2023-08-30T02:59:38;97978.88;;;22.99;100.00
9717;BME280;4897;43.570;27.832;2023-08-30T03:02:05;98061.56;;;23.46;100.00
9717;BME280;4897;43.570;27.832;2023-08-30T03:04:32;98064.50;;;23.45;100.00
9717;BME280;4897;43.570;27.832;2023-08-30T03:06:59;98055.72;;;23.43;100.00
9717;BME280;4897;43.570;27.832;2023-08-30T03:09:27;98054.81;;;23.49;100.00
9717;BME280;4897;43.570;27.832;2023-08-30T03:11:54;98056.91;;;23.58;100.00
9717;BME280;4897;43.570;27.832;2023-08-30T03:14:21;97998.66;;;23.18;100.00
9717;BME280;4897;43.570;27.832;2023-08-30T03:16:48;98050.75;;;23.63;100.00
9717;BME280;4897;43.570;27.832;2023-08-30T03:19:15;97952.78;;;23.03;100.00
9717;BME280;4897;43.570;27.832;2023-08-30T03:21:43;98050.50;;;23.64;100.00
9717;BME280;4897;43.570;27.832;2023-08-30T03:24:10;98058.22;;;23.67;100.00
9717;BME280;4897;43.570;27.832;2023-08-30T03:26:38;98054.41;;;23.68;100.00
9717;BME280;4897;43.570;27.832;2023-08-30T03:29:06;98057.38;;;23.67;100.00
9717;BME280;4897;43.570;27.832;2023-08-30T03:31:33;98052.03;;;23.60;100.00
9717;BME280;4897;43.570;27.832;2023-08-30T03:33:59;98016.22;;;23.45;100.00
9717;BME280;4897;43.570;27.832;2023-08-30T03:36:27;98053.34;;;23.58;100.00
9717;BME280;4897;43.570;27.832;2023-08-30T03:38:54;98011.00;;;23.32;100.00
9717;BME280;4897;43.570;27.832;2023-08-30T03:41:21;98050.75;;;23.63;100.00
9717;BME280;4897;43.570;27.832;2023-08-30T03:43:51;98059.59;;;23.70;100.00
9717;BME280;4897;43.570;27.832;2023-08-30T03:46:18;98067.34;;;23.73;100.00
9717;BME280;4897;43.570;27.832;2023-08-30T03:48:45;98058.44;;;23.66;100.00
9717;BME280;4897;43.570;27.832;2023-08-30T03:51:11;98045.16;;;23.69;100.00
9717;BME280;4897;43.570;27.832;2023-08-30T03:53:38;98018.94;;;23.45;100.00
9717;BME280;4897;43.570;27.832;2023-08-30T03:56:05;98063.88;;;23.77;100.00
9717;BME280;4897;43.570;27.832;2023-08-30T03:58:33;98070.66;;;23.75;100.00
9717;BME280;4897;43.570;27.832;2023-08-30T04:01:01;98076.44;;;23.78;100.00
9717;BME280;4897;43.570;27.832;2023-08-30T04:03:28;98079.56;;;23.82;100.00
9717;BME280;4897;43.570;27.832;2023-08-30T04:05:55;98081.78;;;23.85;100.00
9717;BME280;4897;43.570;27.832;2023-08-30T04:08:22;98086.53;;;23.90;100.00
9717;BME280;4897;43.570;27.832;2023-08-30T04:10:52;98091.84;;;23.96;100.00
9717;BME280;4897;43.570;27.832;2023-08-30T04:13:19;98082.34;;;23.99;100.00
9717;BME280;4897;43.570;27.832;2023-08-30T04:15:47;98105.47;;;24.19;100.00
9717;BME280;4897;43.570;27.832;2023-08-30T04:18:15;98077.97;;;24.09;100.00
9717;BME280;4897;43.570;27.832;2023-08-30T04:20:46;98113.09;;;24.45;100.00
9717;BME280;4897;43.570;27.832;2023-08-30T04:23:13;98105.78;;;24.63;100.00
9717;BME280;4897;43.570;27.832;2023-08-30T04:25:40;98107.28;;;24.70;100.00
9717;BME280;4897;43.570;27.832;2023-08-30T04:28:07;98114.16;;;24.84;100.00
9717;BME280;4897;43.570;27.832;2023-08-30T04:30:36;98106.38;;;24.93;100.00
9717;BME280;4897;43.570;27.832;2023-08-30T04:33:03;98097.25;;;25.04;100.00
9717;BME280;4897;43.570;27.832;2023-08-30T04:35:32;98096.25;;;25.10;100.00
9717;BME280;4897;43.570;27.832;2023-08-30T04:37:59;98089.31;;;25.19;100.00
9717;BME280;4897;43.570;27.832;2023-08-30T04:40:29;98099.91;;;25.32;100.00
9717;BME280;4897;43.570;27.832;2023-08-30T04:42:59;98104.75;;;25.42;100.00
9717;BME280;4897;43.570;27.832;2023-08-30T04:45:26;98078.09;;;25.37;100.00
9717;BME280;4897;43.570;27.832;2023-08-30T04:47:53;98105.81;;;25.57;100.00
9717;BME280;4897;43.570;27.832;2023-08-30T04:50:20;98054.63;;;25.41;100.00
9717;BME280;4897;43.570;27.832;2023-08-30T04:52:48;98096.81;;;25.78;100.00
9717;BME280;4897;43.570;27.832;2023-08-30T04:55:15;98095.34;;;25.92;100.00
9717;BME280;4897;43.570;27.832;2023-08-30T04:57:42;98099.50;;;25.95;100.00
9717;BME280;4897;43.570;27.832;2023-08-30T05:00:11;98079.59;;;25.83;100.00
9717;BME280;4897;43.570;27.832;2023-08-30T05:02:38;98101.97;;;26.13;100.00
9717;BME280;4897;43.570;27.832;2023-08-30T05:05:06;121251.00;;;-141.46;100.00
9717;BME280;4897;43.570;27.832;2023-08-30T05:07:33;98045.53;;;25.95;100.00
9717;BME280;4897;43.570;27.832;2023-08-30T05:10:02;98045.53;;;25.95;100.00
9717;BME280;4897;43.570;27.832;2023-08-30T05:12:29;98045.53;;;25.95;100.00
9717;BME280;4897;43.570;27.832;2023-08-30T05:14:56;98045.53;;;25.95;100.00
9717;BME280;4897;43.570;27.832;2023-08-30T05:17:23;98045.53;;;25.95;100.00
9717;BME280;4897;43.570;27.832;2023-08-30T05:19:50;98045.53;;;25.95;100.00
9717;BME280;4897;43.570;27.832;2023-08-30T05:22:17;98045.53;;;25.95;100.00
9717;BME280;4897;43.570;27.832;2023-08-30T05:24:44;98045.53;;;25.95;100.00
9717;BME280;4897;43.570;27.832;2023-08-30T05:27:12;98045.53;;;25.95;100.00
9717;BME280;4897;43.570;27.832;2023-08-30T05:29:43;98045.53;;;25.95;100.00
9717;BME280;4897;43.570;27.832;2023-08-30T05:32:10;98045.53;;;25.95;100.00
9717;BME280;4897;43.570;27.832;2023-08-30T05:34:37;98045.53;;;25.95;100.00
9717;BME280;4897;43.570;27.832;2023-08-30T05:37:04;98045.53;;;25.95;100.00
9717;BME280;4897;43.570;27.832;2023-08-30T05:39:30;98045.53;;;25.95;100.00
9717;BME280;4897;43.570;27.832;2023-08-30T05:41:57;98045.53;;;25.95;100.00
9717;BME280;4897;43.570;27.832;2023-08-30T05:44:26;98045.53;;;25.95;100.00
9717;BME280;4897;43.570;27.832;2023-08-30T05:46:52;98045.53;;;25.95;100.00
9717;BME280;4897;43.570;27.832;2023-08-30T05:49:19;98045.53;;;25.95;100.00
9717;BME280;4897;43.570;27.832;2023-08-30T05:51:46;98045.53;;;25.95;100.00
9717;BME280;4897;43.570;27.832;2023-08-30T05:54:13;98045.53;;;25.95;100.00
9717;BME280;4897;43.570;27.832;2023-08-30T05:56:40;73086.75;;;-141.46;100.00
9717;BME280;4897;43.570;27.832;2023-08-30T05:59:08;62273.31;;;-141.46;100.00
9717;BME280;4897;43.570;27.832;2023-08-30T06:01:36;62273.31;;;-141.46;100.00
9717;BME280;4897;43.570;27.832;2023-08-30T06:04:03;98045.53;;;25.95;100.00
9717;BME280;4897;43.570;27.832;2023-08-30T06:06:30;62273.31;;;-141.46;100.00
9717;BME280;4897;43.570;27.832;2023-08-30T06:08:58;62273.31;;;-141.46;100.00
9717;BME280;4897;43.570;27.832;2023-08-30T06:11:24;62273.31;;;-141.46;100.00
9717;BME280;4897;43.570;27.832;2023-08-30T06:13:51;98045.53;;;25.95;100.00
9717;BME280;4897;43.570;27.832;2023-08-30T06:16:18;62273.31;;;25.95;100.00
9717;BME280;4897;43.570;27.832;2023-08-30T06:18:46;62273.31;;;-141.46;100.00
9717;BME280;4897;43.570;27.832;2023-08-30T06:21:13;62273.31;;;-141.46;100.00
9717;BME280;4897;43.570;27.832;2023-08-30T06:23:40;62273.31;;;-141.46;100.00
9717;BME280;4897;43.570;27.832;2023-08-30T06:26:07;62273.31;;;-141.46;100.00
9717;BME280;4897;43.570;27.832;2023-08-30T06:28:34;62273.31;;;-141.46;100.00
9717;BME280;4897;43.570;27.832;2023-08-30T06:31:01;62273.31;;;-141.46;100.00
9717;BME280;4897;43.570;27.832;2023-08-30T06:33:28;62273.31;;;-141.46;100.00
9717;BME280;4897;43.570;27.832;2023-08-30T06:35:56;62273.31;;;-141.46;100.00
9717;BME280;4897;43.570;27.832;2023-08-30T06:38:23;62273.31;;;-141.46;100.00
9717;BME280;4897;43.570;27.832;2023-08-30T06:40:50;62273.31;;;-141.46;100.00
9717;BME280;4897;43.570;27.832;2023-08-30T06:43:16;62273.31;;;-141.46;100.00
9717;BME280;4897;43.570;27.832;2023-08-30T06:45:43;62273.31;;;-141.46;100.00
9717;BME280;4897;43.570;27.832;2023-08-30T06:48:12;62273.31;;;-141.46;100.00
9717;BME280;4897;43.570;27.832;2023-08-30T06:50:38;62273.31;;;-141.46;100.00
9717;BME280;4897;43.570;27.832;2023-08-30T06:53:07;62273.31;;;-141.46;100.00
9717;BME280;4897;43.570;27.832;2023-08-30T06:55:34;62273.31;;;-141.46;100.00
9717;BME280;4897;43.570;27.832;2023-08-30T06:58:02;62273.31;;;-141.46;100.00
9717;BME280;4897;43.570;27.832;2023-08-30T07:00:29;62273.31;;;-141.46;100.00
9717;BME280;4897;43.570;27.832;2023-08-30T07:02:56;62273.31;;;-141.46;100.00
9717;BME280;4897;43.570;27.832;2023-08-30T07:05:23;62273.31;;;-141.46;100.00
9717;BME280;4897;43.570;27.832;2023-08-30T07:07:50;62273.31;;;-141.46;100.00
9717;BME280;4897;43.570;27.832;2023-08-30T07:10:18;62273.31;;;-141.46;100.00
9717;BME280;4897;43.570;27.832;2023-08-30T07:12:45;62273.31;;;-141.46;100.00
9717;BME280;4897;43.570;27.832;2023-08-30T07:15:14;62273.31;;;-141.46;100.00
9717;BME280;4897;43.570;27.832;2023-08-30T07:17:42;62273.31;;;-141.46;100.00
9717;BME280;4897;43.570;27.832;2023-08-30T07:20:10;62273.31;;;-141.46;100.00
9717;BME280;4897;43.570;27.832;2023-08-30T07:22:37;62273.31;;;-141.46;100.00
9717;BME280;4897;43.570;27.832;2023-08-30T07:25:04;62273.31;;;-141.46;100.00
9717;BME280;4897;43.570;27.832;2023-08-30T07:27:33;62273.31;;;-141.46;100.00
9717;BME280;4897;43.570;27.832;2023-08-30T07:30:00;62273.31;;;-141.46;100.00
9717;BME280;4897;43.570;27.832;2023-08-30T07:32:27;62273.31;;;-141.46;100.00
9717;BME280;4897;43.570;27.832;2023-08-30T07:34:54;62273.31;;;-141.46;100.00
9717;BME280;4897;43.570;27.832;2023-08-30T07:37:21;62273.31;;;-141.46;100.00
9717;BME280;4897;43.570;27.832;2023-08-30T07:39:48;62273.31;;;-141.46;100.00
9717;BME280;4897;43.570;27.832;2023-08-30T07:42:17;62273.31;;;-141.46;100.00
9717;BME280;4897;43.570;27.832;2023-08-30T07:44:46;62273.31;;;-141.46;100.00
9717;BME280;4897;43.570;27.832;2023-08-30T07:47:12;62273.31;;;-141.46;100.00
9717;BME280;4897;43.570;27.832;2023-08-30T07:49:40;62273.31;;;-141.46;100.00
9717;BME280;4897;43.570;27.832;2023-08-30T07:52:07;62273.31;;;-141.46;100.00
9717;BME280;4897;43.570;27.832;2023-08-30T07:54:36;62273.31;;;-141.46;100.00
9717;BME280;4897;43.570;27.832;2023-08-30T07:57:04;62273.31;;;-141.46;100.00
9717;BME280;4897;43.570;27.832;2023-08-30T07:59:33;62273.31;;;-141.46;100.00
9717;BME280;4897;43.570;27.832;2023-08-30T08:02:01;62273.31;;;-141.46;100.00
9717;BME280;4897;43.570;27.832;2023-08-30T08:04:28;62273.31;;;-141.46;100.00
9717;BME280;4897;43.570;27.832;2023-08-30T08:06:55;62273.31;;;-141.46;100.00
9717;BME280;4897;43.570;27.832;2023-08-30T08:09:22;62273.31;;;-141.46;100.00
9717;BME280;4897;43.570;27.832;2023-08-30T08:11:49;62273.31;;;-141.46;100.00
9717;BME280;4897;43.570;27.832;2023-08-30T08:14:16;62273.31;;;-141.46;100.00
9717;BME280;4897;43.570;27.832;2023-08-30T08:16:43;62273.31;;;-141.46;100.00
9717;BME280;4897;43.570;27.832;2023-08-30T08:19:11;62273.31;;;-141.46;100.00
9717;BME280;4897;43.570;27.832;2023-08-30T08:21:38;62273.31;;;-141.46;100.00
9717;BME280;4897;43.570;27.832;2023-08-30T08:24:06;62273.31;;;-141.46;100.00
9717;BME280;4897;43.570;27.832;2023-08-30T08:26:33;62273.31;;;-141.46;100.00
9717;BME280;4897;43.570;27.832;2023-08-30T08:29:00;62273.31;;;-141.46;100.00
9717;BME280;4897;43.570;27.832;2023-08-30T08:31:28;62273.31;;;-141.46;100.00
9717;BME280;4897;43.570;27.832;2023-08-30T08:34:07;62273.31;;;-141.46;100.00
9717;BME280;4897;43.570;27.832;2023-08-30T08:36:36;62273.31;;;-141.46;100.00
9717;BME280;4897;43.570;27.832;2023-08-30T08:39:03;62273.31;;;-141.46;100.00
9717;BME280;4897;43.570;27.832;2023-08-30T08:41:35;62273.31;;;-141.46;100.00
9717;BME280;4897;43.570;27.832;2023-08-30T08:44:05;62273.31;;;-141.46;100.00
9717;BME280;4897;43.570;27.832;2023-08-30T08:46:34;62273.31;;;-141.46;100.00
9717;BME280;4897;43.570;27.832;2023-08-30T08:49:07;62273.31;;;-141.46;100.00
9717;BME280;4897;43.570;27.832;2023-08-30T08:51:39;62273.31;;;-141.46;100.00
9717;BME280;4897;43.570;27.832;2023-08-30T08:54:06;62273.31;;;-141.46;100.00
9717;BME280;4897;43.570;27.832;2023-08-30T08:56:34;62273.31;;;-141.46;100.00
9717;BME280;4897;43.570;27.832;2023-08-30T08:59:02;62273.31;;;-141.46;100.00
9717;BME280;4897;43.570;27.832;2023-08-30T09:01:29;62273.31;;;-141.46;100.00
9717;BME280;4897;43.570;27.832;2023-08-30T09:03:59;62273.31;;;-141.46;100.00
9717;BME280;4897;43.570;27.832;2023-08-30T09:06:28;62273.31;;;-141.46;100.00
9717;BME280;4897;43.570;27.832;2023-08-30T09:08:57;62273.31;;;-141.46;100.00
9717;BME280;4897;43.570;27.832;2023-08-30T09:11:24;62273.31;;;-141.46;100.00
9717;BME280;4897;43.570;27.832;2023-08-30T09:13:51;62273.31;;;-141.46;100.00
9717;BME280;4897;43.570;27.832;2023-08-30T09:16:17;62273.31;;;-141.46;100.00
9717;BME280;4897;43.570;27.832;2023-08-30T09:18:44;62273.31;;;-141.46;100.00
9717;BME280;4897;43.570;27.832;2023-08-30T09:21:11;62273.31;;;-141.46;100.00
9717;BME280;4897;43.570;27.832;2023-08-30T09:23:38;62273.31;;;-141.46;100.00
9717;BME280;4897;43.570;27.832;2023-08-30T09:26:07;62273.31;;;-141.46;100.00
9717;BME280;4897;43.570;27.832;2023-08-30T09:28:41;62273.31;;;-141.46;100.00
9717;BME280;4897;43.570;27.832;2023-08-30T09:31:17;62273.31;;;-141.46;100.00
9717;BME280;4897;43.570;27.832;2023-08-30T09:33:45;62273.31;;;-141.46;100.00
9717;BME280;4897;43.570;27.832;2023-08-30T09:36:13;62273.31;;;-141.46;100.00
9717;BME280;4897;43.570;27.832;2023-08-30T09:38:40;62273.31;;;-141.46;100.00
9717;BME280;4897;43.570;27.832;2023-08-30T09:41:09;62273.31;;;-141.46;100.00
9717;BME280;4897;43.570;27.832;2023-08-30T09:43:42;62273.31;;;-141.46;100.00
9717;BME280;4897;43.570;27.832;2023-08-30T09:46:10;62273.31;;;-141.46;100.00
9717;BME280;4897;43.570;27.832;2023-08-30T09:48:37;62273.31;;;-141.46;100.00
9717;BME280;4897;43.570;27.832;2023-08-30T09:51:07;62273.31;;;-141.46;100.00
9717;BME280;4897;43.570;27.832;2023-08-30T09:53:40;62273.31;;;-141.46;100.00
9717;BME280;4897;43.570;27.832;2023-08-30T09:56:12;62273.31;;;-141.46;100.00
9717;BME280;4897;43.570;27.832;2023-08-30T09:58:41;62273.31;;;-141.46;100.00
9717;BME280;4897;43.570;27.832;2023-08-30T10:01:09;62273.31;;;-141.46;100.00
9717;BME280;4897;43.570;27.832;2023-08-30T10:03:38;62273.31;;;-141.46;100.00
9717;BME280;4897;43.570;27.832;2023-08-30T10:06:05;62273.31;;;-141.46;100.00
9717;BME280;4897;43.570;27.832;2023-08-30T10:08:34;62273.31;;;-141.46;100.00
9717;BME280;4897;43.570;27.832;2023-08-30T10:11:02;62273.31;;;-141.46;100.00
9717;BME280;4897;43.570;27.832;2023-08-30T10:13:33;62273.31;;;-141.46;100.00
9717;BME280;4897;43.570;27.832;2023-08-30T10:16:02;62273.31;;;-141.46;100.00
9717;BME280;4897;43.570;27.832;2023-08-30T10:18:32;62273.31;;;-141.46;100.00
9717;BME280;4897;43.570;27.832;2023-08-30T10:21:03;62273.31;;;-141.46;100.00
9717;BME280;4897;43.570;27.832;2023-08-30T10:23:34;62273.31;;;-141.46;100.00
9717;BME280;4897;43.570;27.832;2023-08-30T10:26:03;62273.31;;;-141.46;100.00
9717;BME280;4897;43.570;27.832;2023-08-30T10:28:34;62273.31;;;-141.46;100.00
9717;BME280;4897;43.570;27.832;2023-08-30T10:31:04;62273.31;;;-141.46;100.00
9717;BME280;4897;43.570;27.832;2023-08-30T10:33:31;62273.31;;;-141.46;100.00
9717;BME280;4897;43.570;27.832;2023-08-30T10:36:05;62273.31;;;-141.46;100.00
9717;BME280;4897;43.570;27.832;2023-08-30T10:38:35;62273.31;;;-141.46;100.00
9717;BME280;4897;43.570;27.832;2023-08-30T10:41:09;62273.31;;;-141.46;100.00
9717;BME280;4897;43.570;27.832;2023-08-30T10:43:37;62273.31;;;-141.46;100.00
9717;BME280;4897;43.570;27.832;2023-08-30T10:46:05;62273.31;;;-141.46;100.00
9717;BME280;4897;43.570;27.832;2023-08-30T10:48:37;62273.31;;;-141.46;100.00
9717;BME280;4897;43.570;27.832;2023-08-30T10:51:06;62273.31;;;-141.46;100.00
9717;BME280;4897;43.570;27.832;2023-08-30T10:53:42;62273.31;;;-141.46;100.00
9717;BME280;4897;43.570;27.832;2023-08-30T10:56:10;62273.31;;;-141.46;100.00
9717;BME280;4897;43.570;27.832;2023-08-30T10:58:44;62273.31;;;-141.46;100.00
9717;BME280;4897;43.570;27.832;2023-08-30T11:01:11;62273.31;;;-141.46;100.00
9717;BME280;4897;43.570;27.832;2023-08-30T11:03:40;62273.31;;;-141.46;100.00
9717;BME280;4897;43.570;27.832;2023-08-30T11:06:13;62273.31;;;-141.46;100.00
9717;BME280;4897;43.570;27.832;2023-08-30T11:08:41;62273.31;;;-141.46;100.00
9717;BME280;4897;43.570;27.832;2023-08-30T11:11:09;62273.31;;;-141.46;100.00
9717;BME280;4897;43.570;27.832;2023-08-30T11:13:37;62273.31;;;-141.46;100.00
9717;BME280;4897;43.570;27.832;2023-08-30T11:16:05;62273.31;;;-141.46;100.00
9717;BME280;4897;43.570;27.832;2023-08-30T11:18:36;62273.31;;;-141.46;100.00
9717;BME280;4897;43.570;27.832;2023-08-30T11:21:05;62273.31;;;-141.46;100.00
9717;BME280;4897;43.570;27.832;2023-08-30T11:23:33;62273.31;;;-141.46;100.00
9717;BME280;4897;43.570;27.832;2023-08-30T11:26:00;62273.31;;;-141.46;100.00
9717;BME280;4897;43.570;27.832;2023-08-30T11:28:29;62273.31;;;-141.46;100.00
9717;BME280;4897;43.570;27.832;2023-08-30T11:30:56;62273.31;;;-141.46;100.00
9717;BME280;4897;43.570;27.832;2023-08-30T11:33:24;62273.31;;;-141.46;100.00
9717;BME280;4897;43.570;27.832;2023-08-30T11:35:51;62273.31;;;-141.46;100.00
9717;BME280;4897;43.570;27.832;2023-08-30T11:38:19;62273.31;;;-141.46;100.00
9717;BME280;4897;43.570;27.832;2023-08-30T11:41:00;62273.31;;;-141.46;100.00
9717;BME280;4897;43.570;27.832;2023-08-30T11:43:28;62273.31;;;-141.46;100.00
9717;BME280;4897;43.570;27.832;2023-08-30T11:45:58;62273.31;;;-141.46;100.00
9717;BME280;4897;43.570;27.832;2023-08-30T11:48:26;62273.31;;;-141.46;100.00
9717;BME280;4897;43.570;27.832;2023-08-30T11:50:53;62273.31;;;-141.46;100.00
9717;BME280;4897;43.570;27.832;2023-08-30T11:53:20;62273.31;;;-141.46;100.00
9717;BME280;4897;43.570;27.832;2023-08-30T11:55:47;62273.31;;;-141.46;100.00
9717;BME280;4897;43.570;27.832;2023-08-30T11:58:14;62273.31;;;-141.46;100.00
9717;BME280;4897;43.570;27.832;2023-08-30T12:00:41;62273.31;;;-141.46;100.00
9717;BME280;4897;43.570;27.832;2023-08-30T12:03:08;62273.31;;;-141.46;100.00
9717;BME280;4897;43.570;27.832;2023-08-30T12:05:44;62273.31;;;-141.46;100.00
9717;BME280;4897;43.570;27.832;2023-08-30T12:08:18;62273.31;;;-141.46;100.00
9717;BME280;4897;43.570;27.832;2023-08-30T12:10:45;62273.31;;;-141.46;100.00
9717;BME280;4897;43.570;27.832;2023-08-30T12:13:20;62273.31;;;-141.46;100.00
9717;BME280;4897;43.570;27.832;2023-08-30T12:15:47;62273.31;;;-141.46;100.00
9717;BME280;4897;43.570;27.832;2023-08-30T12:18:14;62273.31;;;-141.46;100.00
9717;BME280;4897;43.570;27.832;2023-08-30T12:20:53;62273.31;;;-141.46;100.00
9717;BME280;4897;43.570;27.832;2023-08-30T12:23:21;62273.31;;;-141.46;100.00
9717;BME280;4897;43.570;27.832;2023-08-30T12:25:57;62273.31;;;-141.46;100.00
9717;BME280;4897;43.570;27.832;2023-08-30T12:28:24;62273.31;;;-141.46;100.00
9717;BME280;4897;43.570;27.832;2023-08-30T12:30:51;62273.31;;;-141.46;100.00
9717;BME280;4897;43.570;27.832;2023-08-30T12:33:18;62273.31;;;-141.46;100.00
9717;BME280;4897;43.570;27.832;2023-08-30T12:35:45;62273.31;;;-141.46;100.00
9717;BME280;4897;43.570;27.832;2023-08-30T12:38:15;62273.31;;;-141.46;100.00
9717;BME280;4897;43.570;27.832;2023-08-30T12:40:44;62273.31;;;-141.46;100.00
9717;BME280;4897;43.570;27.832;2023-08-30T12:43:11;62273.31;;;-141.46;100.00
9717;BME280;4897;43.570;27.832;2023-08-30T12:45:38;62273.31;;;-141.46;100.00
9717;BME280;4897;43.570;27.832;2023-08-30T12:48:06;62273.31;;;-141.46;100.00
9717;BME280;4897;43.570;27.832;2023-08-30T12:50:33;62273.31;;;-141.46;100.00
9717;BME280;4897;43.570;27.832;2023-08-30T12:53:01;62273.31;;;-141.46;100.00
9717;BME280;4897;43.570;27.832;2023-08-30T12:55:29;62273.31;;;-141.46;100.00